Time;durP1;ratioP1;P1;durP2;ratioP2;P2;SDS_P1;SDS_P2;PMS_P1;PMS_P2;Temp;Humidity;BMP_temperature;BMP_pressure;BME280_temperature;BME280_humidity;BME280_pressure;Samples;Min_cycle;Max_cycle;Signal;HPM_P1;HPM_P2
2021/10/07 00:01:30;;;;;;;3.88;3.05;;;5.30;99.90;;;;;;5075435;28;20132;-83
2021/10/07 00:03:57;;;;;;;3.20;3.00;;;5.30;99.90;;;;;;5075047;28;20048;-83
2021/10/07 00:06:23;;;;;;;3.17;2.97;;;5.20;99.90;;;;;;5073742;28;20139;-82
2021/10/07 00:08:50;;;;;;;7.90;4.00;;;5.20;99.90;;;;;;5074592;28;20140;-83
2021/10/07 00:11:17;;;;;;;6.70;3.95;;;5.10;99.90;;;;;;5074342;22;20067;-89
2021/10/07 00:13:44;;;;;;;4.05;3.45;;;5.20;99.90;;;;;;5051894;28;20121;-90
2021/10/07 00:16:11;;;;;;;5.85;3.10;;;5.20;99.90;;;;;;5030206;28;20056;-90
2021/10/07 00:18:41;;;;;;;3.97;3.60;;;5.20;99.90;;;;;;5029321;28;20175;-90
2021/10/07 00:21:08;;;;;;;6.20;3.60;;;5.10;99.90;;;;;;5029428;28;20410;-90
2021/10/07 00:23:44;;;;;;;5.82;3.50;;;5.10;99.90;;;;;;5029002;28;20144;-90
2021/10/07 00:26:10;;;;;;;6.68;3.40;;;5.10;99.90;;;;;;5029090;28;20056;-90
2021/10/07 00:28:37;;;;;;;4.28;3.63;;;5.00;99.90;;;;;;5030134;28;20072;-89
2021/10/07 00:31:10;;;;;;;8.40;3.92;;;5.00;99.90;;;;;;5030067;28;20069;-90
2021/10/07 00:33:55;;;;;;;3.88;3.60;;;5.00;99.90;;;;;;5029159;28;20434;-90
2021/10/07 00:37:07;;;;;;;5.13;3.28;;;5.10;99.90;;;;;;5029896;28;20048;-90
2021/10/07 00:39:14;;;;;;;10.32;4.00;;;5.10;99.90;;;;;;5025287;28;20050;-89
2021/10/07 00:41:42;;;;;;;5.53;3.58;;;5.10;99.90;;;;;;5024751;28;20046;-90
2021/10/07 00:44:11;;;;;;;5.00;3.38;;;5.00;99.90;;;;;;5015695;28;20042;-90
2021/10/07 00:46:45;;;;;;;6.53;4.53;;;5.00;99.90;;;;;;5015488;28;20085;-90
2021/10/07 00:49:12;;;;;;;4.57;4.13;;;5.10;99.90;;;;;;5015419;28;20046;-90
2021/10/07 00:51:39;;;;;;;4.40;4.00;;;5.10;99.90;;;;;;5016393;28;20060;-90
2021/10/07 00:54:06;;;;;;;6.13;4.03;;;5.20;99.90;;;;;;5016411;28;20045;-90
2021/10/07 00:56:33;;;;;;;6.57;4.43;;;5.10;99.90;;;;;;5016083;28;20056;-89
2021/10/07 00:59:01;;;;;;;4.80;3.33;;;5.00;99.90;;;;;;5015439;28;20042;-90
2021/10/07 01:01:28;;;;;;;3.90;3.60;;;5.00;99.90;;;;;;5014959;28;20133;-90
2021/10/07 01:03:55;;;;;;;3.88;3.58;;;5.00;99.90;;;;;;5014856;28;20486;-90
2021/10/07 01:06:22;;;;;;;3.80;3.50;;;5.00;99.90;;;;;;5016267;28;20467;-90
2021/10/07 01:08:49;;;;;;;7.13;3.80;;;5.10;99.90;;;;;;5015935;28;20521;-90
2021/10/07 01:11:16;;;;;;;4.47;3.53;;;5.10;99.90;;;;;;5014791;28;20133;-90
2021/10/07 01:13:43;;;;;;;4.38;3.58;;;5.00;99.90;;;;;;5014896;28;20046;-90
2021/10/07 01:16:11;;;;;;;3.97;3.55;;;4.90;99.90;;;;;;5015055;28;20057;-90
2021/10/07 01:18:38;;;;;;;5.85;4.10;;;5.00;99.90;;;;;;5014743;28;20415;-89
2021/10/07 01:21:10;;;;;;;4.55;4.05;;;5.00;99.90;;;;;;5015004;28;20053;-90
2021/10/07 01:23:39;;;;;;;6.65;4.20;;;5.10;99.90;;;;;;5015132;28;20054;-90
2021/10/07 01:26:08;;;;;;;4.70;4.28;;;5.20;99.90;;;;;;5015814;28;20060;-90
2021/10/07 01:28:41;;;;;;;8.40;5.15;;;5.20;99.90;;;;;;5020497;28;20054;-90
2021/10/07 01:31:09;;;;;;;5.90;4.53;;;5.30;99.90;;;;;;5040212;28;20094;-88
2021/10/07 01:33:36;;;;;;;7.57;4.30;;;5.30;99.90;;;;;;5022192;28;20046;-90
2021/10/07 01:36:04;;;;;;;6.82;4.47;;;5.30;99.90;;;;;;5015423;28;20057;-90
2021/10/07 01:38:31;;;;;;;4.53;4.13;;;5.30;99.90;;;;;;5014657;28;20056;-90
2021/10/07 01:40:58;;;;;;;9.10;3.95;;;5.30;99.90;;;;;;5014451;28;20418;-90
2021/10/07 01:43:25;;;;;;;6.72;4.10;;;5.20;99.90;;;;;;5015101;28;20072;-90
2021/10/07 01:45:52;;;;;;;11.55;4.57;;;5.20;99.90;;;;;;5014594;28;20089;-90
2021/10/07 01:48:19;;;;;;;8.13;3.75;;;5.20;99.90;;;;;;5014399;28;20077;-90
2021/10/07 01:50:46;;;;;;;7.75;4.18;;;5.20;99.90;;;;;;5014171;28;20056;-90
2021/10/07 01:53:13;;;;;;;8.65;4.38;;;5.10;99.90;;;;;;5014649;28;20417;-90
2021/10/07 01:55:40;;;;;;;5.63;3.67;;;5.10;99.90;;;;;;5014593;28;20418;-90
2021/10/07 01:58:06;;;;;;;5.95;3.95;;;5.10;99.90;;;;;;5015263;28;20054;-90
2021/10/07 02:00:33;;;;;;;5.72;3.85;;;5.10;99.90;;;;;;5014263;28;20054;-90
2021/10/07 02:03:00;;;;;;;6.40;4.75;;;5.10;99.90;;;;;;5013599;28;20104;-90
2021/10/07 02:05:27;;;;;;;6.47;4.30;;;5.10;99.90;;;;;;5014882;28;20060;-91
2021/10/07 02:07:54;;;;;;;6.68;4.50;;;5.10;99.90;;;;;;5014170;28;20425;-90
2021/10/07 02:10:21;;;;;;;8.52;5.10;;;5.10;99.90;;;;;;5013969;28;20054;-90
2021/10/07 02:12:49;;;;;;;8.82;5.68;;;5.20;99.90;;;;;;5013972;28;20053;-91
2021/10/07 02:15:17;;;;;;;7.25;5.43;;;5.20;99.90;;;;;;5013817;28;20465;-90
2021/10/07 02:17:44;;;;;;;8.63;5.20;;;5.30;99.90;;;;;;5014113;28;20058;-90
2021/10/07 02:20:11;;;;;;;7.10;5.50;;;5.40;99.90;;;;;;5014949;28;20100;-90
2021/10/07 02:22:40;;;;;;;8.38;5.25;;;5.50;99.90;;;;;;5013611;28;20494;-90
2021/10/07 02:25:08;;;;;;;5.68;5.18;;;5.40;99.90;;;;;;5013677;28;20506;-90
2021/10/07 02:27:35;;;;;;;8.23;4.85;;;5.50;99.90;;;;;;5013802;28;20052;-90
2021/10/07 02:30:07;;;;;;;5.72;4.57;;;5.60;99.90;;;;;;5015018;28;20133;-91
2021/10/07 02:32:33;;;;;;;6.80;4.68;;;5.70;99.90;;;;;;5013814;28;20507;-90
2021/10/07 02:35:00;;;;;;;11.50;4.63;;;5.70;99.90;;;;;;5013794;28;20137;-90
2021/10/07 02:37:27;;;;;;;5.38;4.47;;;5.80;99.90;;;;;;5013575;28;20537;-90
2021/10/07 02:39:54;;;;;;;11.70;5.03;;;5.80;99.90;;;;;;5014082;28;20100;-90
2021/10/07 02:42:21;;;;;;;5.60;4.47;;;5.80;99.90;;;;;;5014824;28;20049;-90
2021/10/07 02:44:48;;;;;;;5.63;4.00;;;5.80;99.90;;;;;;5013723;28;20128;-89
2021/10/07 02:47:14;;;;;;;8.10;3.75;;;5.60;99.90;;;;;;5019365;28;20034;-89
2021/10/07 02:49:41;;;;;;;5.55;4.28;;;5.60;99.90;;;;;;5038015;28;20034;-90
2021/10/07 02:52:08;;;;;;;7.00;4.55;;;5.60;99.90;;;;;;5021003;28;20042;-90
2021/10/07 02:54:35;;;;;;;6.65;4.45;;;5.50;99.90;;;;;;5013047;28;20560;-90
2021/10/07 02:57:02;;;;;;;11.32;5.30;;;5.60;99.90;;;;;;5013135;28;20132;-90
2021/10/07 02:59:28;;;;;;;9.60;5.18;;;5.60;99.90;;;;;;5012974;28;20403;-89
2021/10/07 03:01:55;;;;;;;5.20;4.78;;;5.60;99.90;;;;;;5013333;28;20505;-90
2021/10/07 03:04:22;;;;;;;5.43;4.95;;;5.60;99.90;;;;;;5012956;28;20081;-90
2021/10/07 03:06:49;;;;;;;8.60;5.45;;;5.70;99.90;;;;;;5012866;28;20052;-90
2021/10/07 03:09:16;;;;;;;11.63;4.50;;;5.70;99.90;;;;;;5013137;28;20053;-90
2021/10/07 03:11:43;;;;;;;7.72;4.40;;;5.70;99.90;;;;;;5012762;28;20093;-91
2021/10/07 03:14:10;;;;;;;5.32;4.80;;;5.70;99.90;;;;;;5012904;28;20052;-90
2021/10/07 03:16:36;;;;;;;6.75;5.10;;;5.70;99.90;;;;;;5012995;28;20168;-90
2021/10/07 03:19:03;;;;;;;6.82;4.80;;;5.70;99.90;;;;;;5012856;28;20046;-90
2021/10/07 03:21:30;;;;;;;8.10;4.32;;;5.80;99.90;;;;;;5012681;28;20059;-89
2021/10/07 03:23:56;;;;;;;7.10;4.90;;;5.90;99.90;;;;;;5013747;28;20046;-90
2021/10/07 03:26:23;;;;;;;8.27;4.45;;;5.90;99.90;;;;;;5013079;28;20053;-90
2021/10/07 03:28:50;;;;;;;6.55;4.82;;;6.00;99.90;;;;;;5013697;28;20405;-90
2021/10/07 03:31:17;;;;;;;9.38;5.00;;;6.10;99.90;;;;;;5012800;28;20050;-91
2021/10/07 03:33:44;;;;;;;11.13;5.80;;;6.10;99.90;;;;;;5013663;28;20494;-90
2021/10/07 03:36:10;;;;;;;13.30;6.30;;;6.10;99.90;;;;;;5012785;28;20050;-90
2021/10/07 03:38:37;;;;;;;14.57;6.40;;;6.10;99.90;;;;;;5012932;28;20053;-90
2021/10/07 03:41:04;;;;;;;18.65;5.78;;;6.10;99.90;;;;;;5012670;28;20601;-90
2021/10/07 03:43:31;;;;;;;8.95;6.00;;;6.20;99.90;;;;;;5013491;28;20128;-90
2021/10/07 03:45:57;;;;;;;7.60;5.82;;;6.20;99.90;;;;;;5012741;28;20058;-89
2021/10/07 03:48:24;;;;;;;9.15;5.50;;;6.20;99.90;;;;;;5012711;28;20045;-91
2021/10/07 03:50:51;;;;;;;8.45;6.10;;;6.20;99.90;;;;;;5012818;28;20050;-91
2021/10/07 03:53:17;;;;;;;6.50;4.97;;;6.20;99.90;;;;;;5012629;28;20112;-91
2021/10/07 03:55:44;;;;;;;8.85;5.65;;;6.30;99.90;;;;;;5013509;28;20054;-90
2021/10/07 03:58:11;;;;;;;7.18;5.75;;;6.30;99.90;;;;;;5016042;28;20089;-91
2021/10/07 04:00:38;;;;;;;7.40;5.53;;;6.30;99.90;;;;;;5014072;28;20060;-90
2021/10/07 04:03:05;;;;;;;9.40;6.50;;;6.30;99.90;;;;;;5014552;28;20046;-90
2021/10/07 04:05:32;;;;;;;7.63;5.70;;;6.30;99.90;;;;;;5017025;28;20052;-91
2021/10/07 04:07:59;;;;;;;7.47;5.53;;;6.30;99.90;;;;;;5037602;28;20073;-90
2021/10/07 04:10:26;;;;;;;5.10;4.60;;;6.20;99.90;;;;;;5024997;28;20085;-90
2021/10/07 04:12:53;;;;;;;8.95;5.95;;;6.30;99.90;;;;;;5013568;28;20050;-90
2021/10/07 04:15:20;;;;;;;7.88;5.10;;;6.40;99.90;;;;;;5013012;28;20088;-90
2021/10/07 04:17:46;;;;;;;9.73;5.32;;;6.30;99.90;;;;;;5014507;28;20050;-90
2021/10/07 04:20:13;;;;;;;6.45;5.53;;;6.30;99.90;;;;;;5017717;28;20137;-90
2021/10/07 04:22:40;;;;;;;6.97;4.47;;;6.10;99.90;;;;;;5017214;28;20379;-90
2021/10/07 04:25:07;;;;;;;7.93;4.93;;;6.10;99.90;;;;;;5015965;28;20075;-91
2021/10/07 04:27:35;;;;;;;6.20;4.10;;;6.10;99.90;;;;;;5016152;28;20046;-90
2021/10/07 04:30:04;;;;;;;6.30;3.58;;;6.10;99.90;;;;;;5016159;28;20072;-91
2021/10/07 04:32:31;;;;;;;4.90;3.72;;;6.10;99.90;;;;;;5015760;28;20092;-90
2021/10/07 04:34:58;;;;;;;4.00;3.60;;;6.10;99.90;;;;;;5015738;28;20096;-89
2021/10/07 04:37:25;;;;;;;4.50;3.47;;;5.90;99.90;;;;;;5015752;28;20445;-91
2021/10/07 04:39:52;;;;;;;4.82;3.10;;;5.80;99.90;;;;;;5015952;28;20501;-90
2021/10/07 04:42:19;;;;;;;6.28;3.33;;;5.70;99.90;;;;;;5016929;28;20487;-90
2021/10/07 04:44:45;;;;;;;4.80;3.33;;;5.60;99.90;;;;;;5015456;28;20050;-90
2021/10/07 04:47:12;;;;;;;6.05;3.22;;;5.40;99.90;;;;;;5016771;28;20053;-90
2021/10/07 04:49:39;;;;;;;4.10;3.30;;;5.30;99.90;;;;;;5015927;28;20144;-90
2021/10/07 04:52:06;;;;;;;6.85;3.80;;;5.20;99.90;;;;;;5015826;28;20081;-90
2021/10/07 04:54:32;;;;;;;4.93;4.20;;;5.10;99.90;;;;;;5016661;28;20045;-91
2021/10/07 04:56:59;;;;;;;8.40;4.32;;;5.20;99.90;;;;;;5016779;28;20486;-91
2021/10/07 04:59:26;;;;;;;5.50;4.00;;;5.10;99.90;;;;;;5015581;28;20058;-91
2021/10/07 05:01:53;;;;;;;3.40;3.17;;;5.20;99.90;;;;;;5015668;28;20077;-90
2021/10/07 05:04:20;;;;;;;6.45;3.30;;;5.00;99.90;;;;;;5015535;28;20053;-90
2021/10/07 05:06:46;;;;;;;5.15;3.15;;;5.00;99.90;;;;;;5015284;28;20054;-90
2021/10/07 05:09:13;;;;;;;10.68;3.53;;;5.00;99.90;;;;;;5016486;28;20050;-90
2021/10/07 05:11:40;;;;;;;10.98;4.38;;;4.90;99.90;;;;;;5014891;28;20053;-91
2021/10/07 05:14:07;;;;;;;4.45;4.05;;;4.90;99.90;;;;;;5015517;28;20046;-91
2021/10/07 05:16:34;;;;;;;6.63;4.95;;;4.90;99.90;;;;;;5014898;28;20054;-90
2021/10/07 05:19:01;;;;;;;11.55;5.32;;;5.00;99.90;;;;;;5015271;28;20042;-91
2021/10/07 05:21:27;;;;;;;11.13;5.32;;;5.00;99.90;;;;;;5015054;28;20532;-90
2021/10/07 05:23:54;;;;;;;14.10;4.97;;;5.20;99.90;;;;;;5017717;28;20081;-91
2021/10/07 05:26:21;;;;;;;6.95;4.93;;;5.30;99.90;;;;;;5037647;28;20045;-90
2021/10/07 05:28:47;;;;;;;18.40;5.43;;;5.30;99.90;;;;;;5030344;28;20121;-90
2021/10/07 05:31:17;;;;;;;14.05;6.30;;;5.30;99.90;;;;;;5015571;28;20050;-90
2021/10/07 05:33:44;;;;;;;10.45;6.20;;;5.40;99.90;;;;;;5013868;28;20091;-91
2021/10/07 05:36:11;;;;;;;8.30;5.35;;;5.40;99.90;;;;;;5014843;28;20046;-90
2021/10/07 05:38:38;;;;;;;7.53;5.47;;;5.40;99.90;;;;;;5014687;28;20054;-90
2021/10/07 05:41:05;;;;;;;14.57;6.55;;;5.50;99.90;;;;;;5014508;28;20068;-90
2021/10/07 05:43:32;;;;;;;7.00;5.53;;;5.50;99.90;;;;;;5014727;28;20057;-91
2021/10/07 05:45:59;;;;;;;11.38;5.97;;;5.50;99.90;;;;;;5014441;28;20417;-91
2021/10/07 05:48:27;;;;;;;17.77;6.35;;;5.60;99.90;;;;;;5014309;28;20080;-91
2021/10/07 05:50:54;;;;;;;8.68;6.50;;;5.70;99.90;;;;;;5014483;28;20165;-90
2021/10/07 05:53:21;;;;;;;16.63;6.13;;;5.70;99.90;;;;;;5014102;28;20422;-91
2021/10/07 05:55:47;;;;;;;12.35;5.90;;;5.80;99.90;;;;;;5014494;28;20042;-91
2021/10/07 05:58:14;;;;;;;7.82;6.18;;;5.80;99.90;;;;;;5014144;28;20056;-91
2021/10/07 06:00:41;;;;;;;9.07;6.32;;;5.90;99.90;;;;;;5014543;28;20060;-90
2021/10/07 06:03:09;;;;;;;17.08;7.20;;;6.00;99.90;;;;;;5006245;28;20414;-90
2021/10/07 06:05:37;;;;;;;15.05;6.22;;;5.90;99.90;;;;;;5008125;28;20084;-91
2021/10/07 06:08:05;;;;;;;9.65;5.22;;;6.10;99.90;;;;;;4994725;28;20078;-90
2021/10/07 06:10:33;;;;;;;6.10;5.50;;;6.10;99.90;;;;;;4993719;28;20414;-90
2021/10/07 06:13:00;;;;;;;5.82;5.30;;;6.20;99.90;;;;;;4993907;28;20050;-91
2021/10/07 06:15:27;;;;;;;7.28;5.80;;;6.30;99.90;;;;;;4996709;28;20046;-91
2021/10/07 06:17:55;;;;;;;5.93;5.40;;;6.30;99.90;;;;;;4995272;28;20054;-91
2021/10/07 06:22:56;;;;;;;9.68;5.82;;;6.40;99.90;;;;;;4994990;28;20056;-90
2021/10/07 06:25:24;;;;;;;13.98;6.05;;;6.40;99.90;;;;;;4994061;28;20058;-90
2021/10/07 06:27:52;;;;;;;8.38;5.40;;;6.40;99.90;;;;;;4994157;28;20048;-91
2021/10/07 06:30:20;;;;;;;11.82;4.30;;;6.40;99.90;;;;;;4994940;28;20058;-91
2021/10/07 06:32:47;;;;;;;12.88;5.20;;;6.40;99.90;;;;;;4995212;28;20056;-91
2021/10/07 06:35:13;;;;;;;12.10;5.80;;;6.40;99.90;;;;;;4993817;28;20619;-91
2021/10/07 06:37:40;;;;;;;8.13;4.78;;;6.30;99.90;;;;;;4993804;28;20057;-91
2021/10/07 06:40:09;;;;;;;5.32;4.40;;;6.30;99.90;;;;;;4993935;28;20100;-91
2021/10/07 06:42:36;;;;;;;8.90;5.22;;;6.30;99.90;;;;;;4996669;28;20061;-91
2021/10/07 06:45:07;;;;;;;6.63;4.78;;;6.30;99.90;;;;;;5014486;28;20090;-91
2021/10/07 06:47:35;;;;;;;6.85;6.25;;;6.30;99.90;;;;;;5010703;28;20118;-91
2021/10/07 06:50:05;;;;;;;15.65;6.43;;;6.30;99.90;;;;;;4993667;28;20081;-90
2021/10/07 06:52:32;;;;;;;9.60;7.00;;;6.30;99.90;;;;;;4994457;28;20058;-91
2021/10/07 06:55:00;;;;;;;13.27;7.28;;;6.30;99.90;;;;;;4994077;28;20046;-91
2021/10/07 06:57:26;;;;;;;16.77;8.73;;;6.30;99.90;;;;;;4994266;28;20058;-91
2021/10/07 06:59:53;;;;;;;19.70;7.82;;;6.20;99.90;;;;;;4996445;28;20050;-91
2021/10/07 07:02:20;;;;;;;11.05;6.70;;;6.20;99.90;;;;;;4998366;28;20042;-90
2021/10/07 07:04:47;;;;;;;24.90;7.72;;;6.20;99.90;;;;;;4993879;28;20056;-91
2021/10/07 07:07:18;;;;;;;18.52;9.40;;;6.20;99.90;;;;;;4993216;28;20603;-91
2021/10/07 07:09:45;;;;;;;19.23;7.30;;;6.20;99.90;;;;;;4993544;28;20068;-91
2021/10/07 07:12:31;;;;;;;26.85;9.30;;;6.20;99.90;;;;;;4993247;28;20050;-91
2021/10/07 07:14:58;;;;;;;28.88;14.18;;;6.60;99.90;;;;;;4993250;28;20145;-90
2021/10/07 07:17:25;;;;;;;35.58;15.88;;;7.00;99.90;;;;;;4993284;28;20057;-90
2021/10/07 07:19:52;;;;;;;29.10;13.55;;;7.30;99.90;;;;;;4994410;28;20050;-90
2021/10/07 07:22:19;;;;;;;23.27;12.23;;;7.50;99.90;;;;;;4993574;28;20140;-90
2021/10/07 07:24:45;;;;;;;17.98;11.00;;;8.00;99.90;;;;;;4993166;28;20053;-91
2021/10/07 07:27:14;;;;;;;22.00;9.10;;;8.40;99.90;;;;;;4993335;28;20053;-89
2021/10/07 07:29:42;;;;;;;12.48;7.47;;;8.50;99.90;;;;;;4993358;28;20046;-90
2021/10/07 07:32:09;;;;;;;9.75;5.50;;;8.90;99.90;;;;;;4993399;28;20058;-90
2021/10/07 07:34:36;;;;;;;6.35;5.68;;;9.10;99.90;;;;;;4994057;28;20419;-89
2021/10/07 07:37:03;;;;;;;6.88;5.35;;;9.40;99.90;;;;;;4992941;28;20061;-90
2021/10/07 07:39:29;;;;;;;7.20;5.10;;;9.80;99.90;;;;;;4992981;28;20092;-90
2021/10/07 07:41:56;;;;;;;8.88;4.63;;;10.00;99.90;;;;;;4994247;28;20134;-89
2021/10/07 07:44:23;;;;;;;4.20;3.53;;;10.40;99.90;;;;;;4992937;28;20046;-90
2021/10/07 07:46:50;;;;;;;5.60;3.17;;;10.60;99.90;;;;;;5006774;28;20104;-90
2021/10/07 07:49:20;;;;;;;7.93;2.90;;;10.80;99.90;;;;;;5013349;28;20046;-89
2021/10/07 07:51:47;;;;;;;6.72;2.80;;;11.00;99.90;;;;;;5014105;28;20137;-90
2021/10/07 07:54:14;;;;;;;11.63;3.10;;;11.30;99.90;;;;;;5016375;28;20053;-90
2021/10/07 07:56:41;;;;;;;7.30;2.10;;;11.60;99.90;;;;;;5017245;28;20056;-90
2021/10/07 07:59:09;;;;;;;4.47;1.65;;;12.20;99.90;;;;;;5017461;28;20376;-90
2021/10/07 08:01:37;;;;;;;4.00;1.10;;;12.90;99.90;;;;;;5016964;28;20049;-90
2021/10/07 08:04:06;;;;;;;7.13;1.17;;;14.20;99.90;;;;;;5023869;28;20057;-90
2021/10/07 08:06:34;;;;;;;3.22;1.10;;;15.90;99.90;;;;;;5020380;28;20589;-90
2021/10/07 08:09:02;;;;;;;3.58;1.13;;;16.90;99.90;;;;;;5016823;28;20049;-87
2021/10/07 08:11:28;;;;;;;1.23;0.93;;;17.70;99.90;;;;;;5016868;28;20058;-88
2021/10/07 08:13:58;;;;;;;1.13;1.02;;;17.30;99.90;;;;;;5017133;28;20064;-90
2021/10/07 08:16:28;;;;;;;6.00;1.38;;;16.30;99.90;;;;;;5015941;28;20088;-90
2021/10/07 08:18:55;;;;;;;0.77;0.63;;;16.00;99.90;;;;;;5015588;28;20049;-90
2021/10/07 08:21:22;;;;;;;3.75;1.20;;;15.70;99.90;;;;;;5015797;28;20479;-91
2021/10/07 08:23:49;;;;;;;2.28;1.00;;;15.60;99.90;;;;;;5015989;28;20064;-90
2021/10/07 08:26:16;;;;;;;1.50;0.90;;;15.60;99.90;;;;;;5015640;28;20046;-90
2021/10/07 08:28:43;;;;;;;1.00;0.70;;;15.80;99.90;;;;;;5015941;28;20483;-91
2021/10/07 08:31:11;;;;;;;2.03;0.70;;;17.00;99.90;;;;;;5015725;28;20056;-88
2021/10/07 08:33:39;;;;;;;6.60;1.38;;;18.70;99.90;;;;;;5015578;28;20057;-88
2021/10/07 08:36:07;;;;;;;2.50;0.80;;;20.10;99.90;;;;;;5015833;28;20410;-88
2021/10/07 08:38:33;;;;;;;4.00;0.68;;;22.10;97.60;;;;;;5015749;28;20100;-88
2021/10/07 08:41:01;;;;;;;2.35;0.80;;;23.40;92.70;;;;;;5015954;28;20050;-88
2021/10/07 08:43:28;;;;;;;1.33;0.60;;;24.20;87.30;;;;;;5016452;28;20050;-87
2021/10/07 08:45:55;;;;;;;1.95;0.90;;;23.80;86.50;;;;;;5015657;28;20042;-88
2021/10/07 08:48:23;;;;;;;1.98;0.43;;;24.60;82.80;;;;;;5015602;28;20049;-88
2021/10/07 08:50:50;;;;;;;1.33;0.50;;;25.00;81.20;;;;;;5016734;28;20046;-90
2021/10/07 08:53:17;;;;;;;2.47;0.63;;;25.90;79.80;;;;;;5016069;28;20068;-88
2021/10/07 08:55:44;;;;;;;2.97;0.50;;;26.80;77.20;;;;;;5006262;28;20107;-88
2021/10/07 08:58:12;;;;;;;1.13;0.65;;;27.80;71.80;;;;;;4997994;28;20051;-88
2021/10/07 09:00:39;;;;;;;0.80;0.55;;;27.80;70.20;;;;;;4995779;28;20061;-89
2021/10/07 09:03:20;;;;;;;0.60;0.50;;;27.20;67.50;;;;;;4995304;28;20337;-91
2021/10/07 09:05:48;;;;;;;2.72;0.50;;;26.20;69.50;;;;;;4995478;28;20050;-89
2021/10/07 09:08:16;;;;;;;2.20;0.70;;;25.90;67.90;;;;;;4995239;28;20054;-91
2021/10/07 09:10:47;;;;;;;3.70;0.82;;;25.90;69.10;;;;;;4995614;28;20483;-91
2021/10/07 09:13:18;;;;;;;1.38;0.50;;;25.80;70.50;;;;;;4995938;28;20110;-87
2021/10/07 09:15:47;;;;;;;0.65;0.47;;;26.80;67.60;;;;;;4995589;28;20046;-89
2021/10/07 09:18:15;;;;;;;2.70;0.68;;;26.00;68.60;;;;;;4995508;28;20137;-89
2021/10/07 09:20:44;;;;;;;0.98;0.70;;;25.20;68.70;;;;;;4995963;28;20056;-88
2021/10/07 09:23:18;;;;;;;1.33;0.50;;;23.50;71.50;;;;;;5007337;28;20065;-88
2021/10/07 09:25:57;;;;;;;6.72;0.88;;;21.60;76.00;;;;;;4995500;28;20048;-89
2021/10/07 09:28:27;;;;;;;0.65;0.47;;;20.70;84.30;;;;;;4995349;28;20046;-88
2021/10/07 09:31:01;;;;;;;1.10;0.63;;;19.70;88.10;;;;;;4995467;28;20141;-89
2021/10/07 09:33:35;;;;;;;1.30;0.40;;;19.60;91.10;;;;;;4995150;28;20410;-89
2021/10/07 09:36:12;;;;;;;4.88;0.50;;;20.30;90.80;;;;;;4995278;28;20046;-88
2021/10/07 09:38:40;;;;;;;0.50;0.40;;;23.20;86.00;;;;;;4995365;28;20058;-88
2021/10/07 09:41:12;;;;;;;0.85;0.38;;;24.20;76.10;;;;;;4995394;28;20085;-90
2021/10/07 09:43:54;;;;;;;1.70;0.30;;;23.50;75.30;;;;;;4995307;28;20057;-88
2021/10/07 09:46:45;;;;;;;0.35;0.35;;;22.80;76.60;;;;;;4995171;28;20056;-88
2021/10/07 09:49:16;;;;;;;0.50;0.22;;;21.10;82.10;;;;;;4995138;28;20046;-89
2021/10/07 09:51:54;;;;;;;0.68;0.50;;;20.00;86.20;;;;;;4995159;28;20072;-88
2021/10/07 09:54:31;;;;;;;0.63;0.30;;;19.10;90.10;;;;;;4994902;28;20089;-88
2021/10/07 09:57:01;;;;;;;2.00;0.63;;;18.90;91.50;;;;;;4994803;28;20578;-88
2021/10/07 09:59:30;;;;;;;1.50;0.98;;;18.60;93.10;;;;;;4994547;28;20053;-89
2021/10/07 10:01:58;;;;;;;1.65;1.45;;;18.10;94.70;;;;;;4996162;28;20046;-88
2021/10/07 10:04:28;;;;;;;4.55;1.35;;;17.90;96.50;;;;;;4994302;28;20061;-89
2021/10/07 10:06:55;;;;;;;3.38;1.02;;;18.00;97.80;;;;;;4995573;28;20414;-88
2021/10/07 10:09:23;;;;;;;28.70;24.20;;;18.80;97.60;;;;;;4994843;28;20042;-91
2021/10/07 10:11:50;;;;;;;2.40;2.20;;;18.30;96.90;;;;;;4994913;28;20060;-89
2021/10/07 10:14:21;;;;;;;4.85;4.38;;;18.10;97.20;;;;;;4994795;28;20050;-89
2021/10/07 10:16:49;;;;;;;102.55;44.85;;;17.90;98.70;;;;;;4996524;28;20082;-89
2021/10/07 10:19:15;;;;;;;23.65;9.48;;;17.60;99.90;;;;;;4994865;28;20125;-89
2021/10/07 10:21:44;;;;;;;2.25;1.27;;;18.40;98.70;;;;;;4995084;28;20054;-89
2021/10/07 10:24:11;;;;;;;6.80;2.72;;;19.90;94.50;;;;;;4996211;28;20053;-89
2021/10/07 10:26:39;;;;;;;3.22;1.73;;;19.90;94.20;;;;;;4995656;28;20086;-89
2021/10/07 10:29:29;;;;;;;3.83;2.80;;;20.90;91.10;;;;;;4994779;28;20050;-89
2021/10/07 10:31:56;;;;;;;1.60;1.50;;;20.50;90.90;;;;;;4994708;28;20066;-89
2021/10/07 10:34:23;;;;;;;4.57;2.45;;;20.40;92.10;;;;;;4994501;28;20499;-87
2021/10/07 10:37:00;;;;;;;1.75;0.60;;;20.70;90.80;;;;;;4996203;28;20076;-87
2021/10/07 10:39:45;;;;;;;4.05;0.65;;;22.50;85.20;;;;;;5013029;28;20058;-89
2021/10/07 10:42:18;;;;;;;0.77;0.68;;;23.50;80.60;;;;;;5010560;28;20078;-91
2021/10/07 10:44:55;;;;;;;4.63;2.60;;;24.90;74.90;;;;;;4995672;28;20142;-89
2021/10/07 10:47:30;;;;;;;1.27;1.00;;;24.70;72.10;;;;;;4994229;28;20104;-88
2021/10/07 10:50:02;;;;;;;0.70;0.63;;;24.70;68.80;;;;;;4994293;28;20137;-89
2021/10/07 10:52:37;;;;;;;1.42;0.40;;;24.20;68.40;;;;;;4994250;28;20046;-88
2021/10/07 10:55:11;;;;;;;3.20;0.70;;;23.50;71.60;;;;;;4995069;28;20444;-88
2021/10/07 10:57:44;;;;;;;1.35;0.55;;;25.00;70.30;;;;;;4993949;28;20050;-90
2021/10/07 11:00:30;;;;;;;2.03;0.60;;;26.30;67.00;;;;;;4994045;28;20072;-89
2021/10/07 11:03:14;;;;;;;1.00;0.63;;;26.10;63.70;;;;;;4995229;28;20085;-90
2021/10/07 11:06:01;;;;;;;2.60;0.43;;;25.70;66.40;;;;;;4996176;28;20403;-88
2021/10/07 11:08:32;;;;;;;2.70;0.75;;;25.60;64.50;;;;;;4998712;28;20129;-89
2021/10/07 11:11:06;;;;;;;2.53;0.60;;;25.90;67.70;;;;;;4997572;28;20054;-89
2021/10/07 11:13:34;;;;;;;2.65;0.60;;;25.70;67.20;;;;;;4993949;28;20054;-93
2021/10/07 11:16:04;;;;;;;1.48;0.80;;;27.00;64.10;;;;;;4978090;28;20054;-90
2021/10/07 11:18:35;;;;;;;1.15;0.88;;;26.90;64.90;;;;;;4993390;28;20507;-91
2021/10/07 11:21:16;;;;;;;0.98;0.93;;;25.70;69.80;;;;;;4993682;28;20093;-90
2021/10/07 11:23:46;;;;;;;3.67;0.70;;;26.60;64.50;;;;;;4993693;28;20069;-91
2021/10/07 11:26:13;;;;;;;2.25;0.77;;;27.60;64.30;;;;;;4993445;28;20455;-89
2021/10/07 11:28:42;;;;;;;0.85;0.80;;;29.80;62.10;;;;;;4993840;28;20082;-89
2021/10/07 11:31:21;;;;;;;2.63;0.90;;;26.60;64.70;;;;;;4995162;28;20056;-90
2021/10/07 11:33:51;;;;;;;1.08;0.75;;;27.30;63.50;;;;;;4993455;28;20050;-89
2021/10/07 11:36:24;;;;;;;1.35;0.85;;;28.30;63.80;;;;;;4992282;28;20101;-90
2021/10/07 11:38:52;;;;;;;3.13;0.70;;;28.70;61.40;;;;;;4993128;28;20050;-89
2021/10/07 11:41:22;;;;;;;6.53;1.48;;;28.50;60.20;;;;;;4993475;28;20049;-94
2021/10/07 11:43:51;;;;;;;3.10;1.00;;;26.90;62.00;;;;;;4993265;28;20487;-90
2021/10/07 11:46:19;;;;;;;2.78;1.20;;;24.20;67.00;;;;;;4993946;28;20081;-90
2021/10/07 11:48:52;;;;;;;1.65;0.80;;;22.70;71.70;;;;;;4993305;28;20046;-89
2021/10/07 11:51:22;;;;;;;1.30;0.93;;;23.30;72.60;;;;;;4992940;28;20089;-92
2021/10/07 11:53:51;;;;;;;0.88;0.80;;;24.00;70.90;;;;;;4992874;28;20054;-93
2021/10/07 11:56:25;;;;;;;2.92;0.70;;;24.90;67.50;;;;;;5003338;28;20034;-90
2021/10/07 11:59:04;;;;;;;3.42;0.88;;;24.60;68.10;;;;;;5018185;28;20061;-89
2021/10/07 12:01:36;;;;;;;1.10;0.73;;;23.10;69.80;;;;;;4992731;28;20613;-92
2021/10/07 12:04:04;;;;;;;1.02;0.75;;;24.20;68.50;;;;;;4993018;28;20081;-91
2021/10/07 12:06:35;;;;;;;0.57;0.40;;;24.30;67.30;;;;;;4992616;28;20054;-90
2021/10/07 12:09:05;;;;;;;1.50;0.55;;;23.10;69.30;;;;;;4993060;28;20074;-90
2021/10/07 12:11:32;;;;;;;0.98;0.50;;;22.80;70.10;;;;;;4993389;28;20542;-89
2021/10/07 12:14:01;;;;;;;1.50;0.70;;;21.80;72.00;;;;;;4992975;28;20050;-89
2021/10/07 12:16:32;;;;;;;0.85;0.85;;;21.00;75.80;;;;;;4994208;28;20058;-91
2021/10/07 12:19:02;;;;;;;2.25;1.00;;;20.60;78.10;;;;;;4993140;28;20069;-91
2021/10/07 12:21:31;;;;;;;0.98;0.90;;;19.60;79.30;;;;;;4992397;28;20097;-90
2021/10/07 12:24:00;;;;;;;1.60;0.70;;;19.20;82.10;;;;;;4994183;28;20538;-91
2021/10/07 12:26:47;;;;;;;2.38;0.90;;;19.10;84.00;;;;;;4992937;28;20077;-91
2021/10/07 12:29:20;;;;;;;1.08;0.93;;;18.70;84.00;;;;;;4991120;28;20086;-88
2021/10/07 12:31:53;;;;;;;0.70;0.70;;;18.50;84.60;;;;;;4991416;28;20053;-92
2021/10/07 12:34:20;;;;;;;1.08;0.73;;;18.30;88.00;;;;;;4991466;28;20046;-93
2021/10/07 12:36:50;;;;;;;1.02;0.85;;;18.20;88.80;;;;;;4992223;28;20550;-91
2021/10/07 12:39:38;;;;;;;0.77;0.77;;;18.00;90.30;;;;;;4993923;28;20050;-91
2021/10/07 12:42:14;;;;;;;3.47;0.90;;;17.80;90.60;;;;;;4996297;28;20101;-94
2021/10/07 12:44:52;;;;;;;1.02;0.75;;;17.80;91.10;;;;;;4995818;28;20452;-93
2021/10/07 12:47:28;;;;;;;2.92;1.05;;;17.90;90.60;;;;;;4995990;28;20479;-90
2021/10/07 12:49:56;;;;;;;1.88;0.70;;;17.90;91.70;;;;;;4996082;28;20054;-93
2021/10/07 12:52:29;;;;;;;2.05;0.75;;;17.70;90.90;;;;;;4996184;28;20052;-91
2021/10/07 12:55:05;;;;;;;0.70;0.70;;;17.80;91.20;;;;;;4995613;28;20462;-91
2021/10/07 12:57:45;;;;;;;2.63;0.88;;;17.80;91.20;;;;;;4997065;28;20053;-89
2021/10/07 13:00:28;;;;;;;0.82;0.50;;;17.70;88.80;;;;;;4995800;28;20069;-93
2021/10/07 13:02:55;;;;;;;2.17;0.88;;;17.60;94.30;;;;;;4996337;28;20066;-92